Time;durP1;ratioP1;P1;durP2;ratioP2;P2;SDS_P1;SDS_P2;PMS_P1;PMS_P2;Temp;Humidity;BMP_temperature;BMP_pressure;BME280_temperature;BME280_humidity;BME280_pressure;Samples;Min_cycle;Max_cycle;Signal;HPM_P1;HPM_P2
2023/04/09 00:01:12;;;;;;;2.80;2.60;;;;;;;8.63;92.72;101063.53;5035379;28;20525;-51
2023/04/09 00:03:39;;;;;;;1.70;1.60;;;;;;;8.67;92.71;101071.47;5035701;28;20865;-49
2023/04/09 00:06:06;;;;;;;2.10;2.00;;;;;;;8.62;92.32;101065.28;5035739;28;20554;-50
2023/04/09 00:08:32;;;;;;;1.40;1.30;;;;;;;8.59;91.84;101068.84;5035395;28;20487;-50
2023/04/09 00:10:59;;;;;;;1.90;1.67;;;;;;;8.73;91.93;101071.38;5035643;28;20518;-50
2023/04/09 00:13:25;;;;;;;2.23;2.13;;;;;;;8.91;91.45;101062.41;5027553;28;20506;-52
2023/04/09 00:16:05;;;;;;;4.10;2.20;;;;;;;8.93;91.72;101057.97;5032945;28;20439;-51
2023/04/09 00:18:31;;;;;;;1.20;1.10;;;;;;;8.93;91.95;101060.63;5027967;28;20479;-50
2023/04/09 00:20:58;;;;;;;3.93;2.70;;;;;;;8.85;91.84;101062.47;5034841;28;20468;-51
2023/04/09 00:23:24;;;;;;;1.53;1.07;;;;;;;8.85;91.62;101055.38;5035040;28;20448;-51
2023/04/09 00:25:51;;;;;;;3.03;1.80;;;;;;;8.81;91.65;101047.47;5034716;28;20448;-51
2023/04/09 00:28:17;;;;;;;1.50;1.40;;;;;;;8.86;91.64;101057.13;5034997;28;20498;-50
2023/04/09 00:30:44;;;;;;;3.33;2.20;;;;;;;8.78;91.03;101055.47;5035082;28;20475;-50
2023/04/09 00:33:10;;;;;;;2.47;2.23;;;;;;;9.06;90.60;101054.31;5034527;28;20501;-52
2023/04/09 00:35:37;;;;;;;2.67;1.87;;;;;;;8.54;92.10;101065.38;5032678;28;20953;-51
2023/04/09 00:38:03;;;;;;;3.47;2.47;;;;;;;8.66;92.25;101063.53;5034539;28;20998;-51
2023/04/09 00:40:30;;;;;;;3.50;3.17;;;;;;;8.31;91.69;101059.31;5034682;28;20899;-50
2023/04/09 00:42:56;;;;;;;3.60;1.77;;;;;;;8.38;93.20;101062.88;5034355;28;20464;-50
2023/04/09 00:45:23;;;;;;;2.90;2.63;;;;;;;8.07;93.73;101067.41;5034671;28;20468;-50
2023/04/09 00:47:50;;;;;;;1.27;1.17;;;;;;;8.17;93.58;101061.19;5034529;28;20464;-51
2023/04/09 00:50:16;;;;;;;2.20;1.33;;;;;;;8.06;93.35;101061.25;5033305;28;21076;-50
2023/04/09 00:52:43;;;;;;;2.40;2.30;;;;;;;7.96;93.58;101055.16;5034013;28;20447;-51
2023/04/09 00:55:09;;;;;;;2.03;1.83;;;;;;;8.19;93.10;101062.94;5030215;28;20823;-52
2023/04/09 00:57:36;;;;;;;1.97;1.40;;;;;;;8.13;94.30;101062.97;5021280;28;20491;-50
2023/04/09 01:00:03;;;;;;;2.47;2.03;;;;;;;8.06;94.31;101065.66;5034322;28;20566;-51
2023/04/09 01:02:30;;;;;;;2.53;2.33;;;;;;;7.96;93.90;101065.72;5033933;28;20475;-50
2023/04/09 01:04:57;;;;;;;1.60;1.50;;;;;;;7.89;93.76;101057.81;5034113;28;20448;-51
2023/04/09 01:07:50;;;;;;;5.20;3.17;;;;;;;7.76;94.47;101056.13;5033133;28;20451;-50
2023/04/09 01:10:37;;;;;;;4.60;1.70;;;;;;;7.52;94.41;101060.63;5033861;28;20497;-52
2023/04/09 01:13:22;;;;;;;1.50;1.40;;;;;;;7.55;95.72;101062.41;5022557;28;20455;-51
2023/04/09 01:15:56;;;;;;;3.23;2.77;;;;;;;7.52;95.12;101065.03;5033666;28;20467;-51
2023/04/09 01:18:27;;;;;;;3.93;1.00;;;;;;;7.35;95.52;101067.75;5034025;28;20451;-50
2023/04/09 01:20:59;;;;;;;2.13;1.20;;;;;;;7.40;95.87;101060.66;5033333;28;20475;-51
2023/04/09 01:23:36;;;;;;;2.00;1.90;;;;;;;7.32;94.06;101060.69;5023125;28;20457;-51
2023/04/09 01:26:21;;;;;;;4.63;2.40;;;;;;;7.38;95.79;101058.03;5032369;28;20451;-51
2023/04/09 01:28:52;;;;;;;2.10;1.27;;;;;;;7.51;96.21;101052.69;5033512;28;21021;-50
2023/04/09 01:31:24;;;;;;;1.43;1.33;;;;;;;7.32;96.11;101055.41;5033453;28;20533;-50
2023/04/09 01:33:51;;;;;;;1.67;1.53;;;;;;;7.47;95.98;101059.78;5033571;28;20447;-50
2023/04/09 01:36:18;;;;;;;2.33;2.23;;;;;;;7.42;96.24;101056.28;5028836;28;20539;-51
2023/04/09 01:38:49;;;;;;;1.50;1.40;;;;;;;7.39;96.80;101061.53;5033679;28;20513;-50
2023/04/09 01:41:20;;;;;;;5.37;1.60;;;;;;;7.43;96.49;101058.91;5033520;28;20550;-51
2023/04/09 01:43:49;;;;;;;2.57;2.30;;;;;;;7.42;96.32;101061.56;5033387;28;20478;-50
2023/04/09 01:46:17;;;;;;;7.30;1.60;;;;;;;7.50;97.15;101062.41;5033317;28;20457;-51
2023/04/09 01:48:45;;;;;;;1.93;1.53;;;;;;;7.42;97.09;101062.44;5033357;28;20494;-50
2023/04/09 01:51:13;;;;;;;6.80;1.83;;;;;;;7.43;96.77;101073.91;5032527;28;20476;-51
2023/04/09 01:53:40;;;;;;;2.63;2.53;;;;;;;7.43;96.71;101073.91;5026180;28;20970;-50
2023/04/09 01:56:08;;;;;;;1.43;1.33;;;;;;;7.54;97.33;101076.47;5033180;28;20448;-50
2023/04/09 01:58:35;;;;;;;3.00;2.80;;;;;;;7.66;97.70;101066.72;5032969;28;20487;-51
2023/04/09 02:01:12;;;;;;;2.17;1.97;;;;;;;7.52;96.84;101067.69;5027867;28;20514;-51
2023/04/09 02:03:45;;;;;;;1.40;1.30;;;;;;;7.62;96.92;101072.06;5032062;28;20454;-51
2023/04/09 02:06:16;;;;;;;2.47;2.27;;;;;;;7.75;96.62;101080.81;5032446;28;20509;-50
2023/04/09 02:08:46;;;;;;;7.00;2.00;;;;;;;7.45;97.16;101080.06;5033174;28;20533;-51
2023/04/09 02:11:14;;;;;;;5.27;1.70;;;;;;;7.64;96.71;101070.28;5032633;28;20882;-50
2023/04/09 02:13:42;;;;;;;6.00;3.37;;;;;;;7.38;98.18;101075.66;5020658;28;20548;-51
2023/04/09 02:16:12;;;;;;;3.90;3.10;;;;;;;7.62;97.57;101075.59;5031320;28;20534;-50
2023/04/09 02:18:39;;;;;;;3.27;2.00;;;;;;;7.26;98.68;101075.69;5033062;28;20454;-50
2023/04/09 02:21:06;;;;;;;1.40;1.30;;;;;;;7.39;98.14;101075.66;5032355;28;20471;-51
2023/04/09 02:23:32;;;;;;;5.90;2.07;;;;;;;7.52;98.68;101075.63;5028085;28;20456;-50
2023/04/09 02:25:58;;;;;;;1.40;1.40;;;;;;;7.55;98.24;101071.22;5029405;28;20456;-51
2023/04/09 02:28:25;;;;;;;2.43;2.33;;;;;;;7.46;97.73;101065.94;5018441;28;20552;-50
2023/04/09 02:30:51;;;;;;;1.23;1.13;;;;;;;7.50;99.20;101070.31;5032175;28;20541;-51
2023/04/09 02:33:18;;;;;;;5.30;1.23;;;;;;;7.42;98.61;101074.78;5032468;28;20998;-50
2023/04/09 02:35:44;;;;;;;1.67;1.57;;;;;;;7.48;99.37;101071.22;5028171;28;20466;-50
2023/04/09 02:38:12;;;;;;;3.50;2.40;;;;;;;7.52;98.98;101072.97;5032511;28;20452;-51
2023/04/09 02:40:42;;;;;;;1.60;1.50;;;;;;;7.46;99.16;101070.34;5031538;28;20871;-50
2023/04/09 02:43:09;;;;;;;2.30;2.20;;;;;;;7.45;99.79;101073.88;5027007;28;20483;-50
2023/04/09 02:45:36;;;;;;;2.67;1.73;;;;;;;7.45;99.55;101069.47;5032646;28;20559;-50
2023/04/09 02:48:02;;;;;;;6.80;2.10;;;;;;;7.36;99.10;101077.44;5032451;28;20448;-51
2023/04/09 02:50:29;;;;;;;2.90;2.60;;;;;;;7.15;100.00;101082.78;5032618;28;20601;-50
2023/04/09 02:52:55;;;;;;;3.20;3.00;;;;;;;7.20;100.00;101081.88;5032321;28;20876;-51
2023/04/09 02:55:22;;;;;;;1.30;1.20;;;;;;;7.02;100.00;101082.81;5031744;28;20447;-51
2023/04/09 02:57:48;;;;;;;2.40;2.20;;;;;;;7.20;99.55;101078.34;5031487;28;20444;-51
2023/04/09 03:00:15;;;;;;;2.40;2.30;;;;;;;6.88;100.00;101074.00;5032408;28;20453;-50
2023/04/09 03:02:41;;;;;;;4.00;2.70;;;;;;;7.02;100.00;101079.28;5032491;28;20525;-51
2023/04/09 03:05:08;;;;;;;2.83;2.33;;;;;;;7.23;100.00;101081.00;5032411;28;20455;-50
2023/04/09 03:07:34;;;;;;;2.10;2.00;;;;;;;6.65;100.00;101073.13;5020223;28;20452;-50
2023/04/09 03:10:01;;;;;;;2.40;2.30;;;;;;;6.88;100.00;101076.66;5032101;28;20538;-50
2023/04/09 03:12:27;;;;;;;2.90;2.10;;;;;;;6.80;100.00;101068.72;5028769;28;20487;-50
2023/04/09 03:14:54;;;;;;;2.20;1.97;;;;;;;6.67;100.00;101063.44;5035132;28;20444;-50
2023/04/09 03:17:20;;;;;;;5.37;2.13;;;;;;;6.91;100.00;101067.84;5035838;28;20486;-50
2023/04/09 03:19:47;;;;;;;4.83;2.50;;;;;;;6.97;100.00;101065.16;5037982;28;20825;-52
2023/04/09 03:22:13;;;;;;;2.10;1.90;;;;;;;7.01;100.00;101057.25;5035703;28;20482;-50
2023/04/09 03:24:40;;;;;;;3.50;1.60;;;;;;;7.11;100.00;101066.03;5035878;28;20451;-51
2023/04/09 03:27:06;;;;;;;2.00;1.90;;;;;;;7.16;99.62;101064.28;5035587;28;20532;-51
2023/04/09 03:29:32;;;;;;;3.33;2.60;;;;;;;7.27;100.00;101051.91;5036033;28;20533;-50
2023/04/09 03:31:59;;;;;;;2.13;1.93;;;;;;;7.28;99.06;101053.66;5035465;28;20486;-50
2023/04/09 03:34:25;;;;;;;3.00;2.50;;;;;;;7.39;98.62;101051.84;5034396;28;20471;-50
2023/04/09 03:36:52;;;;;;;3.57;2.10;;;;;;;7.36;99.10;101051.88;5032240;28;20461;-50
2023/04/09 03:39:18;;;;;;;3.00;2.80;;;;;;;7.40;98.40;101050.06;5035341;28;20443;-50
2023/04/09 03:41:45;;;;;;;1.90;1.80;;;;;;;7.51;97.92;101044.75;5035479;28;20471;-49
2023/04/09 03:44:11;;;;;;;2.33;2.23;;;;;;;7.38;98.23;101044.78;5035414;28;21008;-50
2023/04/09 03:46:38;;;;;;;2.27;2.17;;;;;;;7.55;98.90;101044.75;5035574;28;20447;-51
2023/04/09 03:49:04;;;;;;;3.50;3.20;;;;;;;7.42;99.66;101040.41;5035128;28;20487;-49
2023/04/09 03:51:31;;;;;;;3.13;2.03;;;;;;;7.38;99.41;101033.34;5034573;28;20471;-50
2023/04/09 03:53:57;;;;;;;5.97;2.77;;;;;;;7.39;100.00;101040.38;5035101;28;20936;-51
2023/04/09 03:56:24;;;;;;;7.83;2.00;;;;;;;7.45;99.00;101032.44;5035324;28;20448;-51
2023/04/09 03:58:50;;;;;;;3.90;2.67;;;;;;;7.50;98.52;101040.34;5035327;28;20451;-50
2023/04/09 04:01:17;;;;;;;2.20;0.93;;;;;;;7.40;98.98;101042.16;5035155;28;20558;-50
2023/04/09 04:03:44;;;;;;;1.50;1.40;;;;;;;7.13;100.00;101033.44;5035271;28;20451;-50
2023/04/09 04:06:10;;;;;;;2.87;2.60;;;;;;;7.17;100.00;101038.72;5028783;28;20987;-50
2023/04/09 04:08:37;;;;;;;1.63;1.53;;;;;;;7.13;100.00;101037.84;5034616;28;20510;-51
2023/04/09 04:11:04;;;;;;;3.13;2.77;;;;;;;7.02;100.00;101034.34;5033608;28;20545;-51
2023/04/09 04:13:31;;;;;;;2.40;2.30;;;;;;;7.11;100.00;101032.53;5034979;28;20448;-50
2023/04/09 04:15:57;;;;;;;2.60;2.00;;;;;;;7.00;100.00;101046.69;5034904;28;20465;-50
2023/04/09 04:18:23;;;;;;;2.93;2.73;;;;;;;7.01;100.00;101038.75;5034599;28;20532;-50
2023/04/09 04:20:50;;;;;;;2.30;2.07;;;;;;;6.93;100.00;101048.44;5033686;28;20502;-50
2023/04/09 04:23:16;;;;;;;7.43;2.00;;;;;;;6.89;100.00;101048.47;5026288;28;20459;-50
2023/04/09 04:25:43;;;;;;;1.80;1.33;;;;;;;6.69;100.00;101045.81;5032511;28;20447;-51
2023/04/09 04:28:09;;;;;;;3.37;2.20;;;;;;;6.41;100.00;101047.59;5026559;28;20451;-50
2023/04/09 04:30:36;;;;;;;1.70;1.60;;;;;;;6.48;100.00;101049.34;5034137;28;21004;-52
2023/04/09 04:33:02;;;;;;;1.57;0.97;;;;;;;6.20;99.80;101051.97;5034689;28;20506;-50
2023/04/09 04:35:29;;;;;;;6.60;2.90;;;;;;;6.05;100.00;101057.22;5030092;28;20455;-51
2023/04/09 04:37:55;;;;;;;1.73;1.50;;;;;;;6.02;100.00;101051.03;5034277;28;20452;-51
2023/04/09 04:40:22;;;;;;;1.60;1.53;;;;;;;5.84;99.91;101047.44;5031591;28;20440;-52
2023/04/09 04:42:48;;;;;;;8.23;2.20;;;;;;;5.87;99.44;101046.56;5034120;28;20456;-50
2023/04/09 04:45:15;;;;;;;1.20;0.90;;;;;;;5.62;99.75;101057.06;5022313;28;20497;-49
2023/04/09 04:47:41;;;;;;;1.93;1.60;;;;;;;5.57;100.00;101065.81;5034350;28;20452;-50
2023/04/09 04:50:08;;;;;;;1.17;1.07;;;;;;;5.54;100.00;101063.19;5033715;28;20492;-50
2023/04/09 04:52:35;;;;;;;3.13;2.47;;;;;;;5.51;100.00;101063.16;5033579;28;20820;-51
2023/04/09 04:55:01;;;;;;;5.37;2.80;;;;;;;5.28;100.00;101066.56;5030104;28;20463;-51
2023/04/09 04:57:28;;;;;;;1.77;1.67;;;;;;;5.26;99.89;101062.16;5027696;28;20528;-51
2023/04/09 04:59:54;;;;;;;0.60;0.60;;;;;;;5.17;99.45;101062.97;5033114;28;20506;-51
2023/04/09 05:02:21;;;;;;;0.80;0.80;;;;;;;5.21;100.00;101063.91;5020164;28;20474;-51
2023/04/09 05:04:47;;;;;;;2.97;2.00;;;;;;;5.04;100.00;101072.56;5032185;28;20887;-51
2023/04/09 05:07:14;;;;;;;2.40;1.43;;;;;;;5.12;100.00;101062.06;5040114;28;20535;-52
2023/04/09 05:09:41;;;;;;;1.47;1.23;;;;;;;5.02;99.86;101069.03;5032303;28;20576;-51
2023/04/09 05:12:08;;;;;;;4.00;1.67;;;;;;;5.33;100.00;101063.94;5030174;28;20502;-50
2023/04/09 05:14:34;;;;;;;0.70;0.60;;;;;;;5.21;100.00;101069.16;5034069;28;20443;-50
2023/04/09 05:17:01;;;;;;;1.87;1.43;;;;;;;5.21;99.31;101079.72;5033518;28;20456;-50
2023/04/09 05:19:27;;;;;;;2.20;2.00;;;;;;;5.41;98.45;101070.13;5033484;28;20483;-50
2023/04/09 05:21:53;;;;;;;1.20;1.20;;;;;;;6.12;96.55;101079.22;5024430;28;20480;-51
2023/04/09 05:24:20;;;;;;;2.37;1.03;;;;;;;6.15;96.86;101076.59;5020589;28;20458;-51
2023/04/09 05:26:46;;;;;;;2.33;1.50;;;;;;;6.44;95.78;101081.91;5033120;28;20456;-52
2023/04/09 05:29:13;;;;;;;1.40;1.30;;;;;;;6.53;95.26;101080.16;5033403;28;20451;-50
2023/04/09 05:31:40;;;;;;;0.70;0.70;;;;;;;6.63;95.39;101078.41;5032958;28;20900;-51
2023/04/09 05:34:06;;;;;;;1.63;1.53;;;;;;;6.80;94.31;101084.56;5033260;28;20454;-51
2023/04/09 05:36:32;;;;;;;2.37;2.17;;;;;;;6.87;95.56;101077.53;5032894;28;20452;-51
2023/04/09 05:38:59;;;;;;;4.77;1.47;;;;;;;7.15;95.20;101082.78;5033341;28;20447;-51
2023/04/09 05:41:26;;;;;;;4.93;1.70;;;;;;;7.29;94.33;101073.94;5027472;28;20471;-51
2023/04/09 05:43:52;;;;;;;4.57;2.23;;;;;;;7.28;93.92;101084.53;5032968;28;20894;-51
2023/04/09 05:46:19;;;;;;;2.07;1.90;;;;;;;7.02;95.19;101081.91;5032907;28;20454;-51
2023/04/09 05:48:45;;;;;;;4.43;2.33;;;;;;;6.71;96.56;101073.13;5022202;28;20456;-51
2023/04/09 05:51:12;;;;;;;2.03;1.93;;;;;;;6.61;96.48;101074.00;5019260;28;20563;-51
2023/04/09 05:53:38;;;;;;;2.50;1.13;;;;;;;6.79;97.00;101079.28;5019246;28;20453;-51
2023/04/09 05:56:13;;;;;;;4.23;1.87;;;;;;;6.79;96.08;101082.81;5027714;28;20910;-51
2023/04/09 05:58:40;;;;;;;2.70;1.20;;;;;;;6.90;96.22;101082.81;5032057;28;20971;-51
2023/04/09 06:01:06;;;;;;;2.70;1.50;;;;;;;7.22;95.95;101079.22;5028381;28;20467;-51
2023/04/09 06:03:32;;;;;;;8.90;2.60;;;;;;;7.31;95.21;101084.50;5029129;28;20459;-51
2023/04/09 06:05:59;;;;;;;4.10;2.60;;;;;;;7.20;96.07;101076.59;5027553;28;20534;-51
2023/04/09 06:08:25;;;;;;;3.43;3.13;;;;;;;7.20;95.33;101079.22;5032851;28;20467;-51
2023/04/09 06:10:52;;;;;;;1.47;1.37;;;;;;;7.29;95.96;101084.50;5032134;28;20610;-51
2023/04/09 06:13:18;;;;;;;5.37;2.90;;;;;;;7.38;96.33;101087.09;5028254;28;20459;-51
2023/04/09 06:15:45;;;;;;;2.47;2.27;;;;;;;7.34;96.14;101092.44;5029267;28;20463;-52
2023/04/09 06:18:11;;;;;;;2.67;2.50;;;;;;;7.43;95.93;101097.69;5032094;28;20452;-51
2023/04/09 06:20:38;;;;;;;3.13;2.90;;;;;;;7.55;96.30;101091.50;5027026;28;20467;-51
2023/04/09 06:23:04;;;;;;;2.40;2.30;;;;;;;7.78;95.37;101091.38;5032018;28;20444;-52
2023/04/09 06:25:31;;;;;;;3.20;3.00;;;;;;;7.70;95.69;101099.38;5031544;28;20455;-51
2023/04/09 06:27:57;;;;;;;3.63;2.10;;;;;;;7.85;95.45;101093.13;5025660;28;20471;-51
2023/04/09 06:30:23;;;;;;;3.17;2.87;;;;;;;7.88;95.95;101095.75;5029618;28;20487;-52
2023/04/09 06:32:50;;;;;;;4.13;3.80;;;;;;;8.21;94.83;101102.63;5027977;28;20505;-51
2023/04/09 06:35:20;;;;;;;3.83;3.63;;;;;;;8.37;94.49;101099.06;5027579;28;20467;-53
2023/04/09 06:37:47;;;;;;;9.40;3.80;;;;;;;8.42;94.43;101097.25;5023385;28;20956;-52
2023/04/09 06:40:13;;;;;;;7.17;4.30;;;;;;;8.34;94.74;101104.34;5027373;28;20458;-52
2023/04/09 06:42:40;;;;;;;10.10;3.97;;;;;;;8.50;94.12;101103.41;5031375;28;20839;-52
2023/04/09 06:45:07;;;;;;;2.70;2.50;;;;;;;8.47;95.60;101103.38;5031512;28;20456;-53
2023/04/09 06:47:34;;;;;;;3.43;3.23;;;;;;;8.64;95.05;101105.06;5030588;28;20455;-51
2023/04/09 06:50:02;;;;;;;3.00;2.10;;;;;;;8.90;93.36;101101.28;5026392;28;20511;-51
2023/04/09 06:52:28;;;;;;;3.47;3.10;;;;;;;8.80;93.86;101096.97;5026393;28;21043;-51
2023/04/09 06:54:54;;;;;;;6.33;3.97;;;;;;;8.74;93.58;101101.44;5018682;28;20463;-53
2023/04/09 06:57:21;;;;;;;4.07;3.60;;;;;;;8.86;92.80;101096.91;5025906;28;20448;-51
2023/04/09 06:59:47;;;;;;;5.43;4.40;;;;;;;8.97;92.39;101093.28;5018597;28;20460;-51
2023/04/09 07:02:13;;;;;;;4.57;4.27;;;;;;;9.39;91.11;101098.16;5032147;28;20467;-51
2023/04/09 07:04:40;;;;;;;3.13;2.93;;;;;;;9.24;90.46;101097.44;5032187;28;21010;-51
2023/04/09 07:07:07;;;;;;;13.60;5.40;;;;;;;9.44;89.47;101101.63;5032227;28;20570;-51
2023/04/09 07:09:33;;;;;;;4.77;4.37;;;;;;;9.41;89.65;101098.16;5032170;28;20496;-51
2023/04/09 07:12:00;;;;;;;5.83;4.13;;;;;;;9.58;89.38;101101.47;5031873;28;20471;-51
2023/04/09 07:14:26;;;;;;;3.87;3.57;;;;;;;9.59;89.50;101097.06;5031998;28;20456;-51
2023/04/09 07:16:53;;;;;;;8.93;4.90;;;;;;;9.73;89.46;101096.03;5032020;28;20547;-51
2023/04/09 07:19:19;;;;;;;3.60;3.20;;;;;;;9.69;89.23;101104.91;5032045;28;20506;-52
2023/04/09 07:21:45;;;;;;;9.90;4.87;;;;;;;9.55;89.06;101096.22;5031954;28;20474;-51
2023/04/09 07:24:12;;;;;;;12.90;4.40;;;;;;;9.61;89.31;101104.13;5031777;28;20447;-50
2023/04/09 07:26:38;;;;;;;6.80;5.77;;;;;;;9.54;89.96;101102.41;5031949;28;20819;-51
2023/04/09 07:29:05;;;;;;;8.67;4.60;;;;;;;9.82;91.10;101099.44;5031829;28;20444;-51
2023/04/09 07:31:31;;;;;;;4.73;3.97;;;;;;;9.67;89.66;101103.16;5031792;28;20502;-51
2023/04/09 07:34:01;;;;;;;5.73;5.20;;;;;;;9.70;89.99;101103.13;5031869;28;20454;-51
2023/04/09 07:36:27;;;;;;;5.57;5.07;;;;;;;9.98;89.43;101101.00;5027311;28;20469;-51
2023/04/09 07:38:54;;;;;;;8.07;4.53;;;;;;;10.00;89.44;101097.41;5018631;28;20451;-51
2023/04/09 07:41:20;;;;;;;5.33;4.97;;;;;;;10.13;88.03;101091.94;5031861;28;20485;-52
2023/04/09 07:43:47;;;;;;;10.17;4.87;;;;;;;10.29;88.07;101099.72;5031597;28;20510;-52
2023/04/09 07:46:23;;;;;;;7.00;6.30;;;;;;;10.19;88.68;101099.84;5031664;28;20458;-52
2023/04/09 07:48:49;;;;;;;10.73;5.67;;;;;;;10.37;87.54;101107.56;5032125;28;20447;-51
2023/04/09 07:51:17;;;;;;;6.80;6.10;;;;;;;10.30;88.14;101106.81;5031276;28;20498;-51
2023/04/09 07:53:43;;;;;;;11.97;6.33;;;;;;;10.69;87.16;101109.78;5031438;28;20468;-51
2023/04/09 07:56:10;;;;;;;4.10;3.70;;;;;;;10.55;86.64;101109.06;5031548;28;20452;-51
2023/04/09 07:58:39;;;;;;;7.00;5.37;;;;;;;10.91;86.06;101108.50;5031386;28;20949;-52
2023/04/09 08:01:05;;;;;;;6.10;4.87;;;;;;;10.81;86.39;101109.53;5032821;28;20878;-51
2023/04/09 08:03:32;;;;;;;6.20;5.00;;;;;;;10.82;86.79;101102.44;5035083;28;20834;-52
2023/04/09 08:05:59;;;;;;;9.60;6.27;;;;;;;10.96;87.38;101095.09;5034835;28;20458;-51
2023/04/09 08:08:25;;;;;;;9.17;5.90;;;;;;;10.90;86.21;101100.53;5034786;28;20451;-52
2023/04/09 08:10:52;;;;;;;6.03;5.43;;;;;;;10.97;86.12;101097.78;5034772;28;20502;-52
2023/04/09 08:13:18;;;;;;;5.53;5.03;;;;;;;11.02;85.76;101097.69;5034795;28;20451;-53
2023/04/09 08:15:45;;;;;;;4.40;4.00;;;;;;;11.35;84.86;101106.81;5034930;28;20513;-53
2023/04/09 08:18:11;;;;;;;8.83;5.50;;;;;;;11.16;86.23;101111.63;5034823;28;20454;-53
2023/04/09 08:20:43;;;;;;;8.00;4.43;;;;;;;11.30;83.91;101107.81;5034620;28;20468;-53
2023/04/09 08:23:10;;;;;;;17.60;6.73;;;;;;;11.20;83.52;101107.09;5034967;28;20505;-53
2023/04/09 08:25:37;;;;;;;11.03;5.77;;;;;;;11.43;82.83;101101.38;5034705;28;20490;-53
2023/04/09 08:28:04;;;;;;;6.20;4.63;;;;;;;11.68;82.44;101107.09;5034495;28;20866;-53
2023/04/09 08:30:32;;;;;;;7.20;6.00;;;;;;;11.75;81.72;101108.72;5034113;28;20908;-53
2023/04/09 08:33:00;;;;;;;7.37;5.40;;;;;;;11.62;82.62;101107.22;5034608;28;20467;-53
2023/04/09 08:35:29;;;;;;;7.37;6.10;;;;;;;11.64;83.00;101110.72;5029825;28;20466;-53
2023/04/09 08:37:56;;;;;;;9.07;5.73;;;;;;;11.61;83.32;101114.31;5034682;28;20853;-53
2023/04/09 08:40:23;;;;;;;8.83;5.40;;;;;;;11.66;82.80;101116.91;5033103;28;20452;-53
2023/04/09 08:42:55;;;;;;;9.33;5.70;;;;;;;11.67;82.88;101110.69;5034245;28;20452;-52
2023/04/09 08:45:22;;;;;;;12.93;7.10;;;;;;;11.65;83.08;101120.47;5034573;28;20476;-54
2023/04/09 08:47:50;;;;;;;6.00;5.47;;;;;;;12.11;81.35;101115.13;5034203;28;20555;-53
2023/04/09 08:50:17;;;;;;;5.03;4.50;;;;;;;12.08;80.57;101110.72;5034225;28;20814;-53
2023/04/09 08:52:46;;;;;;;8.27;6.73;;;;;;;12.54;79.55;101115.03;5034299;28;20490;-55
2023/04/09 08:55:13;;;;;;;14.17;6.87;;;;;;;12.77;78.02;101124.28;5021216;28;20940;-53
2023/04/09 08:57:40;;;;;;;6.53;5.57;;;;;;;12.49;76.74;101118.72;5033996;28;20550;-53
2023/04/09 09:00:07;;;;;;;7.53;6.83;;;;;;;12.35;76.16;101116.38;5034201;28;20447;-52
2023/04/09 09:02:34;;;;;;;6.17;5.40;;;;;;;12.18;78.01;101126.50;5033817;28;20483;-52
2023/04/09 09:05:01;;;;;;;7.83;6.43;;;;;;;12.53;76.03;101123.06;5034047;28;20956;-53
2023/04/09 09:07:28;;;;;;;6.70;6.10;;;;;;;12.85;75.86;101120.50;5034083;28;20459;-52
2023/04/09 09:10:02;;;;;;;6.97;5.90;;;;;;;13.09;76.90;101127.00;5033709;28;20451;-52
2023/04/09 09:12:39;;;;;;;7.67;6.53;;;;;;;12.75;77.33;101121.66;5033020;28;21011;-54
2023/04/09 09:15:27;;;;;;;8.07;5.80;;;;;;;12.75;77.04;101118.97;5021786;28;20452;-54
2023/04/09 09:17:56;;;;;;;10.00;6.27;;;;;;;12.60;77.82;101117.53;5021255;28;20471;-52
2023/04/09 09:20:23;;;;;;;4.87;4.37;;;;;;;12.92;76.70;101121.22;5026330;28;20452;-53
2023/04/09 09:22:51;;;;;;;17.30;4.60;;;;;;;12.66;75.84;101119.19;5033071;28;20451;-52
2023/04/09 09:25:23;;;;;;;17.30;7.50;;;;;;;12.82;75.59;101114.34;5024653;28;20456;-53
2023/04/09 09:27:51;;;;;;;8.53;5.30;;;;;;;12.65;74.59;101123.66;5023352;28;20451;-52
2023/04/09 09:30:26;;;;;;;11.57;6.07;;;;;;;12.67;73.57;101118.28;5031599;28;20459;-52
2023/04/09 09:32:54;;;;;;;10.60;6.73;;;;;;;12.81;72.94;101117.94;5019056;28;20825;-52
2023/04/09 09:35:21;;;;;;;10.20;4.60;;;;;;;13.05;73.19;101115.53;5024049;28;20456;-53
2023/04/09 09:38:00;;;;;;;9.50;5.93;;;;;;;12.79;73.41;101109.97;5031572;28;20451;-52
2023/04/09 09:40:27;;;;;;;7.07;5.23;;;;;;;13.10;75.45;101098.53;5032775;28;20960;-52
2023/04/09 09:42:57;;;;;;;11.10;4.63;;;;;;;12.90;73.63;101102.59;5032806;28;20455;-52
2023/04/09 09:45:24;;;;;;;7.13;5.90;;;;;;;13.00;72.86;101105.88;5019507;28;20518;-52
2023/04/09 09:47:52;;;;;;;6.63;6.03;;;;;;;13.24;72.60;101102.63;5029454;28;20530;-53
2023/04/09 09:50:24;;;;;;;5.13;4.67;;;;;;;13.05;73.24;101098.66;5030461;28;20792;-52
2023/04/09 09:52:57;;;;;;;7.20;5.60;;;;;;;12.87;73.66;101097.31;5015514;28;21021;-52
2023/04/09 09:55:28;;;;;;;7.30;5.07;;;;;;;12.74;72.36;101094.06;5023374;28;20463;-52
2023/04/09 09:57:57;;;;;;;9.53;4.20;;;;;;;12.98;71.68;101084.56;5029335;28;20455;-52
2023/04/09 10:00:25;;;;;;;11.13;5.60;;;;;;;13.17;70.70;101071.66;5030618;28;20602;-52
2023/04/09 10:02:58;;;;;;;10.63;5.00;;;;;;;12.99;71.36;101089.00;5032049;28;20482;-52
2023/04/09 10:05:26;;;;;;;5.23;4.67;;;;;;;13.31;71.28;101082.88;5029519;28;20452;-52
2023/04/09 10:07:56;;;;;;;7.80;5.60;;;;;;;13.04;70.38;101083.56;5021518;28;20448;-52
2023/04/09 10:10:24;;;;;;;8.47;5.80;;;;;;;13.31;69.23;101079.31;5017299;28;20457;-52
2023/04/09 10:12:51;;;;;;;9.10;6.10;;;;;;;13.57;68.62;101076.81;5022644;28;20895;-52
2023/04/09 10:15:18;;;;;;;6.30;5.23;;;;;;;13.84;66.82;101061.78;5023505;28;20460;-51
2023/04/09 10:17:45;;;;;;;11.87;4.30;;;;;;;14.67;64.81;101056.53;5032151;28;20840;-52
2023/04/09 10:20:18;;;;;;;7.70;4.77;;;;;;;14.55;64.55;101057.81;5032842;28;20494;-52
2023/04/09 10:22:49;;;;;;;4.13;3.73;;;;;;;14.48;63.01;101065.16;5019965;28;20440;-52
2023/04/09 10:25:16;;;;;;;7.20;4.87;;;;;;;14.76;62.35;101058.88;5025775;28;20962;-52
2023/04/09 10:27:47;;;;;;;4.67;4.37;;;;;;;14.46;63.57;101066.13;5032629;28;20447;-52
2023/04/09 10:30:34;;;;;;;3.90;3.50;;;;;;;13.89;69.11;101067.84;5032285;28;20470;-52
2023/04/09 10:33:12;;;;;;;8.07;7.23;;;;;;;13.18;69.89;101072.53;5032588;28;21015;-52
2023/04/09 10:35:39;;;;;;;4.57;3.53;;;;;;;13.22;69.48;101067.09;5022465;28;20814;-52
2023/04/09 10:38:09;;;;;;;13.57;5.53;;;;;;;13.66;70.78;101062.28;5027915;28;20455;-52
2023/04/09 10:40:41;;;;;;;9.10;6.53;;;;;;;13.43;70.16;101064.72;5030126;28;20563;-52
2023/04/09 10:43:09;;;;;;;6.50;4.40;;;;;;;13.61;70.22;101066.91;5030428;28;20490;-52
2023/04/09 10:45:40;;;;;;;5.83;5.23;;;;;;;13.37;70.43;101059.56;5024947;28;20799;-52
2023/04/09 10:48:13;;;;;;;7.77;4.50;;;;;;;13.81;68.91;101060.97;5029582;28;20467;-52
2023/04/09 10:50:43;;;;;;;7.07;4.83;;;;;;;13.95;67.72;101064.09;5031515;28;20785;-52
2023/04/09 10:53:24;;;;;;;6.03;4.43;;;;;;;14.11;65.76;101059.16;5031968;28;20513;-52
2023/04/09 10:55:52;;;;;;;3.07;2.37;;;;;;;14.46;61.92;101060.78;5027892;28;20564;-52
2023/04/09 10:58:19;;;;;;;5.23;4.83;;;;;;;14.94;60.75;101063.63;5031782;28;20452;-52
2023/04/09 11:00:47;;;;;;;4.20;3.40;;;;;;;14.64;63.57;101061.97;5032546;28;20474;-52
2023/04/09 11:03:26;;;;;;;6.40;5.37;;;;;;;14.19;64.68;101060.69;5020272;28;20936;-52
2023/04/09 11:06:09;;;;;;;2.83;2.63;;;;;;;14.27;62.74;101060.47;5031736;28;20452;-52
2023/04/09 11:08:37;;;;;;;4.87;3.63;;;;;;;14.59;58.68;101058.56;5023627;28;20448;-52
2023/04/09 11:11:04;;;;;;;2.27;2.07;;;;;;;14.38;53.35;101058.28;5021823;28;20487;-52
2023/04/09 11:13:32;;;;;;;4.57;2.20;;;;;;;14.70;54.60;101057.31;5020952;28;20938;-52
2023/04/09 11:16:02;;;;;;;4.10;3.80;;;;;;;14.91;56.17;101058.38;5030688;28;20483;-52
2023/04/09 11:18:29;;;;;;;4.97;4.17;;;;;;;15.07;54.86;101064.06;5022187;28;20467;-52
2023/04/09 11:20:58;;;;;;;3.80;3.57;;;;;;;15.01;56.37;101050.91;5023368;28;20475;-52
2023/04/09 11:23:25;;;;;;;4.10;3.67;;;;;;;15.72;56.70;101047.44;5026449;28;20539;-53
2023/04/09 11:25:53;;;;;;;8.40;4.77;;;;;;;15.37;54.82;101052.28;5031307;28;20456;-50
2023/04/09 11:28:20;;;;;;;7.53;3.43;;;;;;;15.35;55.37;101045.22;5024502;28;20575;-53
2023/04/09 11:30:50;;;;;;;2.53;2.33;;;;;;;14.31;55.07;101051.41;5023451;28;20492;-49
2023/04/09 11:33:17;;;;;;;4.07;2.57;;;;;;;14.03;55.16;101047.84;5031695;28;20509;-52